createdAt,value
2019-06-27T00:02:22.110Z,50.30
2019-06-27T00:04:49.191Z,50.30
2019-06-27T00:07:16.255Z,50.30
2019-06-27T00:09:43.371Z,50.90
2019-06-27T00:12:10.472Z,50.30
2019-06-27T00:14:37.551Z,50.30
2019-06-27T00:17:04.583Z,50.30
2019-06-27T00:19:31.675Z,50.30
2019-06-27T00:21:58.735Z,50.30
2019-06-27T00:24:25.794Z,50.30
2019-06-27T00:26:57.150Z,50.30
2019-06-27T00:29:20.054Z,50.20
2019-06-27T00:31:47.175Z,50.20
2019-06-27T00:34:14.307Z,50.20
2019-06-27T00:36:41.361Z,50.20
2019-06-27T00:39:08.428Z,50.20
2019-06-27T00:41:35.530Z,50.20
2019-06-27T00:44:02.578Z,50.20
2019-06-27T00:46:30.230Z,50.20
2019-06-27T00:48:57.246Z,50.20
2019-06-27T00:51:24.399Z,50.20
2019-06-27T00:53:51.475Z,50.20
2019-06-27T00:56:18.495Z,50.10
2019-06-27T00:58:45.519Z,50.10
2019-06-27T01:01:12.538Z,50.10
2019-06-27T01:03:39.623Z,50.10
2019-06-27T01:06:06.722Z,50.10
2019-06-27T01:08:33.790Z,50.10
2019-06-27T01:11:00.888Z,50.10
2019-06-27T01:13:27.973Z,50.10
2019-06-27T01:15:54.991Z,50.10
2019-06-27T01:18:22.034Z,50.10
2019-06-27T01:20:49.045Z,50.10
2019-06-27T01:23:16.162Z,50.10
2019-06-27T01:25:43.375Z,50.70
2019-06-27T01:28:10.498Z,50.00
2019-06-27T01:30:37.512Z,50.70
2019-06-27T01:33:04.582Z,50.00
2019-06-27T01:35:31.634Z,50.00
2019-06-27T01:37:58.719Z,50.00
2019-06-27T01:40:25.815Z,50.00
2019-06-27T01:42:52.879Z,50.00
2019-06-27T01:45:24.846Z,50.00
2019-06-27T01:47:51.894Z,50.00
2019-06-27T01:50:18.967Z,50.00
2019-06-27T01:52:46.047Z,50.00
2019-06-27T01:55:13.088Z,50.00
2019-06-27T01:57:46.541Z,50.00
2019-06-27T02:00:07.310Z,50.00
2019-06-27T02:02:34.323Z,50.00
2019-06-27T02:05:01.329Z,50.00
2019-06-27T02:07:28.357Z,50.00
2019-06-27T02:09:55.414Z,50.00
2019-06-27T02:12:22.516Z,50.00
2019-06-27T02:14:49.580Z,49.90
2019-06-27T02:17:16.608Z,50.00
2019-06-27T02:19:43.731Z,49.90
2019-06-27T02:22:10.803Z,49.90
2019-06-27T02:24:37.921Z,49.90
2019-06-27T02:27:05.046Z,49.90
2019-06-27T02:29:32.105Z,49.90
2019-06-27T02:31:59.185Z,49.80
2019-06-27T02:34:26.230Z,49.80
2019-06-27T02:36:53.285Z,49.80
2019-06-27T02:39:20.311Z,49.80
2019-06-27T02:41:47.355Z,49.70
2019-06-27T02:44:14.450Z,49.70
2019-06-27T02:46:41.517Z,49.80
2019-06-27T02:49:08.505Z,49.80
2019-06-27T02:51:35.638Z,49.70
2019-06-27T02:54:02.776Z,49.80
2019-06-27T02:56:29.842Z,49.70
2019-06-27T02:58:57.000Z,49.70
2019-06-27T03:01:24.031Z,49.60
2019-06-27T03:03:51.149Z,49.60
2019-06-27T03:06:18.170Z,49.70
2019-06-27T03:08:45.323Z,49.70
2019-06-27T03:11:12.482Z,49.60
2019-06-27T03:13:39.530Z,49.60
2019-06-27T03:16:06.604Z,49.60
2019-06-27T03:18:33.730Z,49.60
2019-06-27T03:21:00.803Z,49.50
2019-06-27T03:23:27.918Z,49.50
2019-06-27T03:25:54.987Z,49.50
2019-06-27T03:28:22.113Z,49.50
2019-06-27T03:30:49.180Z,49.50
2019-06-27T03:33:16.256Z,49.40
2019-06-27T03:35:43.346Z,49.40
2019-06-27T03:38:10.403Z,49.40
2019-06-27T03:40:37.424Z,49.40
2019-06-27T03:43:04.480Z,49.40
2019-06-27T03:45:31.601Z,49.40
2019-06-27T03:47:58.772Z,49.40
2019-06-27T03:50:25.902Z,49.50
2019-06-27T03:52:52.968Z,49.40
2019-06-27T03:55:20.045Z,49.30
2019-06-27T03:57:47.141Z,49.30
2019-06-27T04:00:17.293Z,49.40
2019-06-27T04:02:44.431Z,49.30
2019-06-27T04:05:11.493Z,49.30
2019-06-27T04:07:38.558Z,49.30
2019-06-27T04:10:05.576Z,49.30
2019-06-27T04:12:32.602Z,49.30
2019-06-27T04:14:59.720Z,49.20
2019-06-27T04:17:26.843Z,49.30
2019-06-27T04:19:53.941Z,49.30
2019-06-27T04:22:21.022Z,49.20
2019-06-27T04:24:48.099Z,49.20
2019-06-27T04:27:15.154Z,49.20
2019-06-27T04:29:42.239Z,49.20
2019-06-27T04:32:09.278Z,49.20
2019-06-27T04:34:36.410Z,49.20
2019-06-27T04:37:03.487Z,49.10
2019-06-27T04:39:30.504Z,49.20
2019-06-27T04:41:57.543Z,49.20
2019-06-27T04:44:24.753Z,49.10
2019-06-27T04:46:51.777Z,49.00
2019-06-27T04:49:18.846Z,49.10
2019-06-27T04:51:45.988Z,49.00
2019-06-27T04:54:13.088Z,49.00
2019-06-27T04:56:40.223Z,49.00
2019-06-27T04:59:07.363Z,49.00
2019-06-27T05:01:34.494Z,48.90
2019-06-27T05:04:01.607Z,48.90
2019-06-27T05:06:28.752Z,48.90
2019-06-27T05:08:55.849Z,48.90
2019-06-27T05:11:22.901Z,48.90
2019-06-27T05:13:50.098Z,48.90
2019-06-27T05:16:17.186Z,48.90
2019-06-27T05:18:44.294Z,48.80
2019-06-27T05:21:11.418Z,48.80
2019-06-27T05:23:38.490Z,48.80
2019-06-27T05:26:05.555Z,48.90
2019-06-27T05:28:32.642Z,48.80
2019-06-27T05:30:59.769Z,48.80
2019-06-27T05:33:26.879Z,48.70
2019-06-27T05:35:53.955Z,48.80
2019-06-27T05:38:21.130Z,48.60
2019-06-27T05:40:48.157Z,48.70
2019-06-27T05:43:15.262Z,48.60
2019-06-27T05:45:42.433Z,48.70
2019-06-27T05:48:09.594Z,48.60
2019-06-27T05:50:36.698Z,48.70
2019-06-27T05:53:03.807Z,48.60
2019-06-27T05:55:30.967Z,48.60
2019-06-27T05:57:58.126Z,48.60
2019-06-27T06:00:28.926Z,48.50
2019-06-27T06:02:52.311Z,48.60
2019-06-27T06:05:19.368Z,48.50
2019-06-27T06:07:46.708Z,48.40
2019-06-27T06:10:13.828Z,48.50
2019-06-27T06:12:40.938Z,48.40
2019-06-27T06:15:07.974Z,48.40
2019-06-27T06:17:35.049Z,48.40
2019-06-27T06:20:02.298Z,48.40
2019-06-27T06:22:29.314Z,48.40
2019-06-27T06:24:58.327Z,48.40
2019-06-27T06:27:23.559Z,48.40
2019-06-27T06:29:50.657Z,48.40
2019-06-27T06:32:17.669Z,48.40
2019-06-27T06:34:44.777Z,48.40
2019-06-27T06:37:11.824Z,48.40
2019-06-27T06:39:38.901Z,48.40
2019-06-27T06:42:05.914Z,48.40
2019-06-27T06:44:33.011Z,48.30
2019-06-27T06:47:00.128Z,48.40
2019-06-27T06:49:27.260Z,48.30
2019-06-27T06:51:54.290Z,48.30
2019-06-27T06:54:21.425Z,48.40
2019-06-27T06:56:48.563Z,48.30
2019-06-27T06:59:15.629Z,48.30
2019-06-27T07:01:45.575Z,48.30
2019-06-27T07:04:09.914Z,48.20
2019-06-27T07:06:36.927Z,48.30
2019-06-27T07:09:04.564Z,48.30
2019-06-27T07:11:31.631Z,48.30
2019-06-27T07:13:58.698Z,48.30
2019-06-27T07:16:25.829Z,48.30
2019-06-27T07:18:52.938Z,48.40
2019-06-27T07:21:20.086Z,48.20
2019-06-27T07:23:47.213Z,48.20
2019-06-27T07:26:14.338Z,48.20
2019-06-27T07:28:41.446Z,48.20
2019-06-27T07:31:17.849Z,48.10
2019-06-27T07:33:35.691Z,48.10
2019-06-27T07:36:02.834Z,48.20
2019-06-27T07:38:29.933Z,48.10
2019-06-27T07:40:56.960Z,48.10
2019-06-27T07:43:24.062Z,48.10
2019-06-27T07:45:51.075Z,48.00
2019-06-27T07:48:18.131Z,48.10
2019-06-27T07:50:45.239Z,48.00
2019-06-27T07:53:12.363Z,48.10
2019-06-27T07:55:39.374Z,48.00
2019-06-27T07:58:06.427Z,48.10
2019-06-27T08:00:33.506Z,48.10
2019-06-27T08:03:00.583Z,48.20
2019-06-27T08:05:27.703Z,48.00
2019-06-27T08:07:54.798Z,48.00
2019-06-27T08:10:21.827Z,48.00
2019-06-27T08:12:48.951Z,48.00
2019-06-27T08:15:15.965Z,48.10
2019-06-27T08:17:43.077Z,48.00
2019-06-27T08:20:10.109Z,48.00
2019-06-27T08:22:37.563Z,47.90
2019-06-27T08:25:04.644Z,47.90
2019-06-27T08:27:31.773Z,47.90
2019-06-27T08:29:58.870Z,47.90
2019-06-27T08:32:25.934Z,47.80
2019-06-27T08:34:53.054Z,47.80
2019-06-27T08:37:20.232Z,47.90
2019-06-27T08:39:48.057Z,47.90
2019-06-27T08:42:16.030Z,47.90
2019-06-27T08:44:43.636Z,47.90
2019-06-27T08:47:11.468Z,47.80
2019-06-27T08:49:38.532Z,47.70
2019-06-27T08:52:05.623Z,47.80
2019-06-27T08:54:32.718Z,47.90
2019-06-27T08:56:59.778Z,47.80
2019-06-27T08:59:27.014Z,47.90
2019-06-27T09:02:07.419Z,47.70
2019-06-27T09:04:21.284Z,47.90
2019-06-27T09:06:48.365Z,47.70
2019-06-27T09:09:15.432Z,47.90
2019-06-27T09:11:42.624Z,47.70
2019-06-27T09:14:09.762Z,47.90
2019-06-27T09:16:36.871Z,47.80
2019-06-27T09:19:04.018Z,47.90
2019-06-27T09:21:31.152Z,47.70
2019-06-27T09:23:58.230Z,47.80
2019-06-27T09:26:25.386Z,47.90
2019-06-27T09:28:52.496Z,47.70
2019-06-27T09:31:19.568Z,47.70
2019-06-27T09:33:46.719Z,47.70
2019-06-27T09:36:13.793Z,47.70
2019-06-27T09:38:40.854Z,47.70
2019-06-27T09:41:07.983Z,47.70
2019-06-27T09:43:35.034Z,47.70
2019-06-27T09:46:02.105Z,47.70
2019-06-27T09:48:29.256Z,47.70
2019-06-27T09:50:56.314Z,47.70
2019-06-27T09:53:23.353Z,47.60
2019-06-27T09:55:50.380Z,47.60
2019-06-27T09:58:17.486Z,47.70
2019-06-27T10:00:44.590Z,47.60
2019-06-27T10:03:11.622Z,47.60
2019-06-27T10:05:38.684Z,47.70
2019-06-27T10:08:05.766Z,48.20
2019-06-27T10:10:32.811Z,47.50
2019-06-27T10:12:59.984Z,47.40
2019-06-27T10:15:27.068Z,47.30
2019-06-27T10:17:54.102Z,47.40
2019-06-27T10:20:21.171Z,47.20
2019-06-27T10:22:48.202Z,47.50
2019-06-27T10:25:15.303Z,47.10
2019-06-27T10:27:42.445Z,47.00
2019-06-27T10:30:09.666Z,47.20
2019-06-27T10:32:36.737Z,47.00
2019-06-27T10:35:03.808Z,47.00
2019-06-27T10:37:30.933Z,47.00
2019-06-27T10:39:58.060Z,46.90
2019-06-27T10:42:25.170Z,47.00
2019-06-27T10:44:52.306Z,46.90
2019-06-27T10:47:19.408Z,46.90
2019-06-27T10:49:46.527Z,47.10
2019-06-27T10:52:13.610Z,47.10
2019-06-27T10:54:40.768Z,46.90
2019-06-27T10:57:07.845Z,47.10
2019-06-27T10:59:34.979Z,47.00
2019-06-27T11:02:02.100Z,47.00
2019-06-27T11:04:29.124Z,46.90
2019-06-27T11:06:56.206Z,47.00
2019-06-27T11:09:23.281Z,46.90
2019-06-27T11:11:50.399Z,46.90
2019-06-27T11:14:19.154Z,46.90
2019-06-27T11:16:44.651Z,47.00
2019-06-27T11:19:11.845Z,47.00
2019-06-27T11:21:38.968Z,46.90
2019-06-27T11:24:06.058Z,46.90
2019-06-27T11:26:33.191Z,47.00
2019-06-27T11:29:00.253Z,47.00
2019-06-27T11:31:27.346Z,46.90
2019-06-27T11:33:54.450Z,46.90
2019-06-27T11:36:21.563Z,46.90
2019-06-27T11:38:48.702Z,46.90
2019-06-27T11:41:15.806Z,46.90
2019-06-27T11:43:42.943Z,46.90
2019-06-27T11:46:09.994Z,46.80
2019-06-27T11:48:37.102Z,46.90
2019-06-27T11:51:04.207Z,46.90
2019-06-27T11:53:31.379Z,47.00
2019-06-27T11:55:58.482Z,47.00
2019-06-27T11:58:25.578Z,47.00
2019-06-27T12:00:52.637Z,47.10
2019-06-27T12:03:19.669Z,47.00
2019-06-27T12:05:46.752Z,47.10
2019-06-27T12:08:13.833Z,47.10
2019-06-27T12:10:41.065Z,47.10
2019-06-27T12:13:08.128Z,47.10
2019-06-27T12:15:35.224Z,47.10
2019-06-27T12:18:02.248Z,47.10
2019-06-27T12:20:29.359Z,47.10
2019-06-27T12:22:56.468Z,47.10
2019-06-27T12:25:23.611Z,47.00
2019-06-27T12:27:50.713Z,47.10
2019-06-27T12:30:17.760Z,47.70
2019-06-27T12:32:52.515Z,47.00
2019-06-27T12:35:11.905Z,47.10
2019-06-27T12:37:39.973Z,47.10
2019-06-27T12:40:06.204Z,47.20
2019-06-27T12:42:33.307Z,47.80
2019-06-27T12:45:00.399Z,47.10
2019-06-27T12:47:27.423Z,47.00
2019-06-27T12:50:01.975Z,47.10
2019-06-27T12:52:21.661Z,47.10
2019-06-27T12:54:48.806Z,46.90
2019-06-27T12:57:15.879Z,47.00
2019-06-27T12:59:42.987Z,47.10
2019-06-27T13:02:11.633Z,47.20
2019-06-27T13:04:37.210Z,47.10
2019-06-27T13:07:04.275Z,47.10
2019-06-27T13:09:31.407Z,47.00
2019-06-27T13:11:58.565Z,47.00
2019-06-27T13:14:25.658Z,47.00
2019-06-27T13:16:52.747Z,46.90
2019-06-27T13:19:19.890Z,47.70
2019-06-27T13:21:46.963Z,47.10
2019-06-27T13:24:14.005Z,46.90
2019-06-27T13:26:41.126Z,46.90
2019-06-27T13:29:08.175Z,47.00
2019-06-27T13:31:35.307Z,47.00
2019-06-27T13:34:02.385Z,47.00
2019-06-27T13:36:32.922Z,47.00
2019-06-27T13:38:56.614Z,47.00
2019-06-27T13:41:23.710Z,47.00
2019-06-27T13:43:50.767Z,47.00
2019-06-27T13:46:17.868Z,47.00
2019-06-27T13:48:44.937Z,47.00
2019-06-27T13:51:12.232Z,46.90
2019-06-27T13:53:39.355Z,46.90
2019-06-27T13:56:06.415Z,47.00
2019-06-27T13:58:33.505Z,47.00
2019-06-27T14:01:00.627Z,46.90
2019-06-27T14:03:27.683Z,47.00
2019-06-27T14:05:54.784Z,46.80
2019-06-27T14:08:21.818Z,46.80
2019-06-27T14:10:48.953Z,46.90
2019-06-27T14:13:16.050Z,46.80
2019-06-27T14:15:43.134Z,46.90
2019-06-27T14:18:10.196Z,46.90
2019-06-27T14:20:37.347Z,46.90
2019-06-27T14:23:04.438Z,47.00
2019-06-27T14:25:31.519Z,46.90
2019-06-27T14:27:58.604Z,46.90
2019-06-27T14:30:25.666Z,46.90
2019-06-27T14:32:53.548Z,47.00
2019-06-27T14:35:19.909Z,46.90
2019-06-27T14:37:47.064Z,46.90
2019-06-27T14:40:14.119Z,47.00
2019-06-27T14:42:41.148Z,47.00
2019-06-27T14:45:08.189Z,47.00
2019-06-27T14:47:35.294Z,47.00
2019-06-27T14:50:02.331Z,46.90
2019-06-27T14:52:29.342Z,46.90
2019-06-27T14:54:56.463Z,47.00
2019-06-27T14:57:23.590Z,47.00
2019-06-27T14:59:50.670Z,47.10
2019-06-27T15:02:17.822Z,46.90
2019-06-27T15:04:44.939Z,47.00
2019-06-27T15:07:11.970Z,47.00
2019-06-27T15:09:39.133Z,47.00
2019-06-27T15:12:06.268Z,47.00
2019-06-27T15:14:33.400Z,47.00
2019-06-27T15:17:00.477Z,47.00
2019-06-27T15:19:27.438Z,47.00
2019-06-27T15:21:54.582Z,47.00
2019-06-27T15:24:21.713Z,47.00
2019-06-27T15:26:48.880Z,47.00
2019-06-27T15:29:15.962Z,47.00
2019-06-27T15:31:43.082Z,47.00
2019-06-27T15:34:10.164Z,47.00
2019-06-27T15:36:37.241Z,46.90
2019-06-27T15:39:04.692Z,46.90
2019-06-27T15:41:31.878Z,47.00
2019-06-27T15:43:59.005Z,47.00
2019-06-27T15:46:26.080Z,46.90
2019-06-27T15:48:53.100Z,47.00
2019-06-27T15:51:20.223Z,47.00
2019-06-27T15:53:47.321Z,46.80
2019-06-27T15:56:14.347Z,46.90
2019-06-27T15:58:41.436Z,46.90
2019-06-27T16:01:08.459Z,47.00
2019-06-27T16:03:35.569Z,46.80
2019-06-27T16:06:09.384Z,46.90
2019-06-27T16:08:29.759Z,47.00
2019-06-27T16:10:56.764Z,47.00
2019-06-27T16:13:23.912Z,46.90
2019-06-27T16:15:50.960Z,47.00
2019-06-27T16:18:17.982Z,47.10
2019-06-27T16:20:45.100Z,47.10
2019-06-27T16:23:12.182Z,47.00
2019-06-27T16:25:39.302Z,47.00
2019-06-27T16:28:06.394Z,47.00
2019-06-27T16:30:33.526Z,47.00
2019-06-27T16:33:00.602Z,46.90
2019-06-27T16:35:27.727Z,47.00
2019-06-27T16:37:54.863Z,47.00
2019-06-27T16:40:21.940Z,47.00
2019-06-27T16:42:48.995Z,47.10
2019-06-27T16:45:16.038Z,47.10
2019-06-27T16:47:43.070Z,47.00
2019-06-27T16:50:10.138Z,47.10
2019-06-27T16:52:37.126Z,47.00
2019-06-27T16:55:04.207Z,47.00
2019-06-27T16:57:31.394Z,47.10
2019-06-27T16:59:58.399Z,47.00
2019-06-27T17:02:25.488Z,47.00
2019-06-27T17:04:52.592Z,47.00
2019-06-27T17:07:19.711Z,47.00
2019-06-27T17:09:46.746Z,47.00
2019-06-27T17:12:13.816Z,47.00
2019-06-27T17:14:40.914Z,47.00
2019-06-27T17:17:08.064Z,46.90
2019-06-27T17:19:35.188Z,47.00
2019-06-27T17:22:02.310Z,46.90
2019-06-27T17:24:29.438Z,46.90
2019-06-27T17:26:56.465Z,46.80
2019-06-27T17:29:23.566Z,47.00
2019-06-27T17:31:50.650Z,46.80
2019-06-27T17:34:17.761Z,47.00
2019-06-27T17:36:56.990Z,46.90
2019-06-27T17:39:12.089Z,46.90
2019-06-27T17:41:39.134Z,46.90
2019-06-27T17:44:06.239Z,46.90
2019-06-27T17:46:33.281Z,46.90
2019-06-27T17:49:00.341Z,46.80
2019-06-27T17:51:27.336Z,46.90
2019-06-27T17:53:54.467Z,46.90
2019-06-27T17:56:21.592Z,46.90
2019-06-27T17:58:48.695Z,46.80
2019-06-27T18:01:15.826Z,46.90
2019-06-27T18:03:42.894Z,46.80
2019-06-27T18:06:09.972Z,47.00
2019-06-27T18:08:37.011Z,46.80
2019-06-27T18:11:04.159Z,46.80
2019-06-27T18:13:31.247Z,46.80
2019-06-27T18:15:58.370Z,46.80
2019-06-27T18:18:25.424Z,46.80
2019-06-27T18:20:52.589Z,46.80
2019-06-27T18:23:19.678Z,46.90
2019-06-27T18:25:46.711Z,46.80
2019-06-27T18:28:13.830Z,46.80
2019-06-27T18:30:40.855Z,46.80
2019-06-27T18:33:07.932Z,46.80
2019-06-27T18:35:35.044Z,46.80
2019-06-27T18:38:02.157Z,46.80
2019-06-27T18:40:29.272Z,46.80
2019-06-27T18:42:56.442Z,46.80
2019-06-27T18:45:23.539Z,46.80
2019-06-27T18:47:50.634Z,46.80
2019-06-27T18:50:17.675Z,46.70
2019-06-27T18:52:44.794Z,46.80
2019-06-27T18:55:11.831Z,46.80
2019-06-27T18:57:38.918Z,46.70
2019-06-27T19:00:05.931Z,46.80
2019-06-27T19:02:33.021Z,47.40
2019-06-27T19:05:00.172Z,46.80
2019-06-27T19:07:27.232Z,46.80
2019-06-27T19:09:54.307Z,46.90
2019-06-27T19:12:21.626Z,46.90
2019-06-27T19:14:48.686Z,46.80
2019-06-27T19:17:15.805Z,46.80
2019-06-27T19:19:43.215Z,46.80
2019-06-27T19:22:17.209Z,46.90
2019-06-27T19:24:47.927Z,46.90
2019-06-27T19:27:15.066Z,46.80
2019-06-27T19:29:42.122Z,46.90
2019-06-27T19:32:09.216Z,46.80
2019-06-27T19:34:36.407Z,46.80
2019-06-27T19:37:03.479Z,46.90
2019-06-27T19:39:30.603Z,46.80
2019-06-27T19:41:57.676Z,46.80
2019-06-27T19:44:24.816Z,46.80
2019-06-27T19:46:51.856Z,46.90
2019-06-27T19:49:19.008Z,47.00
2019-06-27T19:51:46.082Z,47.00
2019-06-27T19:54:13.102Z,46.90
2019-06-27T19:56:40.187Z,47.00
2019-06-27T19:59:07.278Z,46.90
2019-06-27T20:01:34.358Z,46.90
2019-06-27T20:04:01.405Z,46.90
2019-06-27T20:06:28.462Z,46.90
2019-06-27T20:08:55.534Z,46.90
2019-06-27T20:11:22.627Z,47.00
2019-06-27T20:13:49.707Z,47.00
2019-06-27T20:16:16.821Z,47.00
2019-06-27T20:18:44.036Z,47.00
2019-06-27T20:21:11.046Z,47.00
2019-06-27T20:23:38.109Z,47.00
2019-06-27T20:26:05.222Z,47.00
2019-06-27T20:28:32.291Z,47.00
2019-06-27T20:30:59.322Z,47.00
2019-06-27T20:33:26.413Z,47.10
2019-06-27T20:35:53.526Z,47.00
2019-06-27T20:38:33.816Z,47.00
2019-06-27T20:40:47.765Z,47.00
2019-06-27T20:43:14.825Z,47.00
2019-06-27T20:45:41.951Z,47.00
2019-06-27T20:48:09.003Z,47.00
2019-06-27T20:50:36.221Z,47.00
2019-06-27T20:53:03.263Z,47.00
2019-06-27T20:55:30.461Z,47.00
2019-06-27T20:57:57.502Z,47.00
2019-06-27T21:00:24.530Z,47.00
2019-06-27T21:02:51.595Z,47.00
2019-06-27T21:05:18.662Z,47.00
2019-06-27T21:07:45.682Z,47.00
2019-06-27T21:10:12.834Z,47.00
2019-06-27T21:12:39.867Z,47.00
2019-06-27T21:15:06.887Z,47.00
2019-06-27T21:17:33.938Z,47.00
2019-06-27T21:20:01.038Z,47.00
2019-06-27T21:22:28.150Z,47.00
2019-06-27T21:24:55.251Z,47.00
2019-06-27T21:27:22.277Z,47.00
2019-06-27T21:29:49.417Z,47.00
2019-06-27T21:32:30.492Z,47.10
2019-06-27T21:34:43.625Z,47.00
2019-06-27T21:37:10.694Z,47.00
2019-06-27T21:39:37.793Z,47.00
2019-06-27T21:42:04.864Z,47.00
2019-06-27T21:44:31.994Z,47.00
2019-06-27T21:46:59.063Z,47.10
2019-06-27T21:49:26.179Z,47.00
2019-06-27T21:51:53.283Z,47.00
2019-06-27T21:54:20.378Z,47.00
2019-06-27T21:56:47.400Z,47.00
2019-06-27T21:59:14.430Z,47.00
2019-06-27T22:01:41.476Z,47.00
2019-06-27T22:04:08.575Z,47.00
2019-06-27T22:06:35.688Z,47.00
2019-06-27T22:09:03.431Z,47.00
2019-06-27T22:11:30.540Z,47.00
2019-06-27T22:13:57.554Z,46.90
2019-06-27T22:16:24.618Z,47.00
2019-06-27T22:18:51.734Z,47.00
2019-06-27T22:21:18.798Z,47.00
2019-06-27T22:23:45.867Z,47.00
2019-06-27T22:26:13.025Z,46.90
2019-06-27T22:28:40.149Z,46.90
2019-06-27T22:31:07.173Z,46.90
2019-06-27T22:33:34.238Z,46.90
2019-06-27T22:36:01.291Z,46.90
2019-06-27T22:38:34.169Z,46.90
2019-06-27T22:41:07.086Z,46.90
2019-06-27T22:43:39.926Z,46.90
2019-06-27T22:46:12.827Z,46.90
2019-06-27T22:48:39.466Z,46.90
2019-06-27T22:51:11.198Z,46.80
2019-06-27T22:53:44.320Z,46.80
2019-06-27T22:56:11.323Z,46.80
2019-06-27T22:58:38.374Z,46.90
2019-06-27T23:01:05.427Z,46.80
2019-06-27T23:03:32.544Z,46.80
2019-06-27T23:05:59.629Z,46.80
2019-06-27T23:08:26.626Z,46.80
2019-06-27T23:10:53.634Z,46.80
2019-06-27T23:13:20.695Z,46.80
2019-06-27T23:15:47.774Z,46.80
2019-06-27T23:18:14.873Z,46.80
2019-06-27T23:20:41.960Z,46.80
2019-06-27T23:23:08.997Z,46.80
2019-06-27T23:25:36.107Z,46.80
2019-06-27T23:28:03.098Z,46.70
2019-06-27T23:30:30.154Z,46.70
2019-06-27T23:32:57.285Z,46.80
2019-06-27T23:35:24.313Z,46.80
2019-06-27T23:37:51.339Z,46.80
2019-06-27T23:40:18.378Z,46.80
2019-06-27T23:42:45.399Z,46.80
2019-06-27T23:45:12.494Z,46.70
2019-06-27T23:47:39.551Z,46.70
2019-06-27T23:50:06.579Z,46.70
2019-06-27T23:52:33.623Z,46.70
2019-06-27T23:55:00.646Z,46.70
2019-06-27T23:57:27.705Z,46.60
2019-06-27T23:59:54.782Z,46.60
